createdAt,value
2019-03-31T00:02:39.289Z,44.20
2019-03-31T00:03:46.645Z,44.00
2019-03-31T00:04:47.083Z,48.20
2019-03-31T00:08:01.645Z,38.90
2019-03-31T00:14:50.114Z,44.60
2019-03-31T00:25:31.522Z,20.30
2019-03-31T00:26:31.971Z,21.10
2019-03-31T00:28:08.027Z,23.00
2019-03-31T00:29:08.472Z,29.30
2019-03-31T00:30:09.014Z,43.20
2019-03-31T00:31:21.518Z,42.80
2019-03-31T00:32:15.989Z,35.40
2019-03-31T00:33:16.456Z,41.30
2019-03-31T00:34:16.922Z,42.60
2019-03-31T00:35:17.393Z,35.20
2019-03-31T00:36:17.927Z,31.90
2019-03-31T00:37:18.376Z,30.50
2019-03-31T00:38:18.875Z,28.80
2019-03-31T00:39:19.325Z,23.00
2019-03-31T00:40:19.777Z,21.00
2019-03-31T00:41:20.222Z,19.40
2019-03-31T00:42:20.747Z,29.80
2019-03-31T00:43:21.183Z,43.20
2019-03-31T00:44:21.767Z,37.50
2019-03-31T00:45:22.228Z,32.00
2019-03-31T00:46:23.714Z,27.20
2019-03-31T00:47:24.177Z,22.20
2019-03-31T00:48:24.954Z,20.00
2019-03-31T00:49:25.454Z,18.10
2019-03-31T00:50:25.989Z,16.20
2019-03-31T00:51:26.435Z,15.60
2019-03-31T00:52:26.966Z,17.40
2019-03-31T00:53:27.409Z,15.40
2019-03-31T00:54:28.048Z,14.20
2019-03-31T00:55:28.518Z,11.80
2019-03-31T00:56:28.994Z,11.50
2019-03-31T00:57:29.464Z,11.10
2019-03-31T00:58:29.937Z,12.40
2019-03-31T00:59:30.431Z,12.40
2019-03-31T01:00:31.065Z,13.70
2019-03-31T01:01:36.737Z,13.70
2019-03-31T01:02:38.221Z,11.80
2019-03-31T01:03:38.659Z,10.00
2019-03-31T01:04:40.211Z,11.90
2019-03-31T01:05:40.668Z,9.60
2019-03-31T01:06:41.141Z,9.00
2019-03-31T01:07:41.913Z,10.30
2019-03-31T01:08:42.482Z,10.60
2019-03-31T01:09:42.924Z,11.40
2019-03-31T01:10:43.417Z,11.80
2019-03-31T01:11:43.864Z,12.50
2019-03-31T01:12:52.081Z,11.00
2019-03-31T01:13:52.529Z,13.50
2019-03-31T01:15:16.023Z,14.10
2019-03-31T01:16:16.469Z,13.50
2019-03-31T01:20:17.328Z,14.30
2019-03-31T01:21:17.767Z,14.10
2019-03-31T01:24:48.801Z,13.80
2019-03-31T01:25:49.248Z,14.30
2019-03-31T01:28:06.796Z,25.10
2019-03-31T01:31:50.328Z,18.60
2019-03-31T01:32:48.938Z,16.90
2019-03-31T01:33:49.382Z,17.30
2019-03-31T01:37:07.416Z,13.90
2019-03-31T01:38:07.873Z,13.50
2019-03-31T01:39:25.460Z,11.60
2019-03-31T01:40:25.897Z,13.60
2019-03-31T01:43:41.545Z,31.40
2019-03-31T01:44:42.003Z,30.20
2019-03-31T01:45:42.544Z,24.00
2019-03-31T01:46:42.980Z,22.50
2019-03-31T01:49:53.988Z,31.80
2019-03-31T01:51:02.563Z,28.10
2019-03-31T01:52:03.009Z,24.80
2019-03-31T01:53:19.985Z,27.90
2019-03-31T01:54:20.474Z,31.70
2019-03-31T01:55:21.084Z,28.50
2019-03-31T01:56:21.518Z,27.40
2019-03-31T01:57:22.121Z,27.40
2019-03-31T01:58:22.577Z,24.20
2019-03-31T01:59:23.067Z,20.00
2019-03-31T02:00:23.545Z,19.30
2019-03-31T02:01:24.090Z,16.30
2019-03-31T02:02:24.558Z,16.90
2019-03-31T02:03:26.100Z,21.20
2019-03-31T02:04:26.544Z,22.00
2019-03-31T02:05:26.989Z,20.90
2019-03-31T02:06:27.442Z,20.00
2019-03-31T02:07:27.888Z,19.20
2019-03-31T02:08:28.416Z,21.30
2019-03-31T02:09:28.865Z,19.40
2019-03-31T02:10:29.305Z,26.90
2019-03-31T02:11:29.774Z,39.00
2019-03-31T02:12:30.213Z,44.80
2019-03-31T02:13:30.674Z,43.20
2019-03-31T02:14:31.128Z,38.00
2019-03-31T02:15:31.578Z,29.80
2019-03-31T02:16:32.019Z,26.10
2019-03-31T02:17:32.486Z,27.00
2019-03-31T02:18:33.008Z,25.80
2019-03-31T02:19:33.467Z,23.20
2019-03-31T02:20:33.909Z,19.60
2019-03-31T02:21:34.354Z,17.40
2019-03-31T02:22:34.822Z,18.10
2019-03-31T02:23:35.296Z,19.00
2019-03-31T02:24:35.739Z,22.30
2019-03-31T02:25:36.253Z,20.40
2019-03-31T02:26:36.706Z,19.30
2019-03-31T02:27:37.159Z,27.90
2019-03-31T02:28:37.633Z,37.30
2019-03-31T02:29:38.078Z,36.20
2019-03-31T02:30:38.531Z,45.70
2019-03-31T02:31:38.979Z,51.60
2019-03-31T02:32:39.582Z,45.60
2019-03-31T02:33:40.050Z,47.90
2019-03-31T02:34:40.507Z,50.20
2019-03-31T02:35:41.043Z,44.40
2019-03-31T02:36:41.493Z,43.10
2019-03-31T02:37:41.949Z,53.00
2019-03-31T02:38:42.422Z,40.80
2019-03-31T02:39:42.871Z,46.80
2019-03-31T02:40:43.315Z,44.60
2019-03-31T02:41:43.797Z,44.10
2019-03-31T02:42:44.233Z,51.40
2019-03-31T02:43:44.710Z,52.70
2019-03-31T02:44:45.164Z,46.30
2019-03-31T02:45:45.726Z,40.60
2019-03-31T02:46:46.183Z,42.00
2019-03-31T02:47:46.623Z,36.00
2019-03-31T02:48:47.104Z,36.40
2019-03-31T02:49:47.546Z,43.20
2019-03-31T02:50:48.017Z,48.00
2019-03-31T02:51:49.470Z,44.20
2019-03-31T02:52:49.929Z,40.80
2019-03-31T02:53:50.397Z,32.80
2019-03-31T02:54:50.845Z,29.20
2019-03-31T02:55:51.300Z,26.70
2019-03-31T02:56:51.748Z,30.80
2019-03-31T02:57:52.211Z,30.80
2019-03-31T02:58:52.663Z,27.80
2019-03-31T02:59:53.108Z,27.60
2019-03-31T03:00:53.547Z,34.90
2019-03-31T03:01:54.006Z,44.70
2019-03-31T03:02:54.481Z,39.50
2019-03-31T03:03:54.964Z,34.70
2019-03-31T03:04:55.454Z,36.90
2019-03-31T03:05:55.910Z,38.20
2019-03-31T03:06:56.383Z,39.80
2019-03-31T03:07:56.856Z,48.40
2019-03-31T03:08:57.317Z,55.40
2019-03-31T03:25:01.545Z,57.20
2019-03-31T03:26:02.015Z,57.90
2019-03-31T03:27:02.464Z,64.20
2019-03-31T03:30:17.593Z,65.50
2019-03-31T03:34:56.185Z,65.30
2019-03-31T03:41:49.794Z,64.90
2019-03-31T03:42:50.229Z,61.30
2019-03-31T03:52:17.167Z,55.20
2019-03-31T03:58:52.147Z,53.30
2019-03-31T04:04:30.581Z,53.10
2019-03-31T04:08:00.185Z,64.60
2019-03-31T04:11:27.246Z,54.70
2019-03-31T04:12:27.702Z,54.70
2019-03-31T04:13:29.247Z,56.70
2019-03-31T04:14:29.702Z,51.80
2019-03-31T04:15:38.197Z,47.40
2019-03-31T04:16:38.638Z,57.90
2019-03-31T04:20:18.441Z,47.30
2019-03-31T04:23:34.779Z,44.50
2019-03-31T04:24:35.245Z,44.30
2019-03-31T04:28:22.728Z,51.00
2019-03-31T04:29:23.212Z,52.90
2019-03-31T04:36:05.378Z,50.20
2019-03-31T04:37:05.853Z,50.40
2019-03-31T04:38:20.821Z,51.70
2019-03-31T04:39:21.265Z,54.60
2019-03-31T04:40:26.934Z,51.10
2019-03-31T04:41:27.403Z,48.60
2019-03-31T04:51:01.287Z,43.20
2019-03-31T04:52:01.746Z,46.70
2019-03-31T04:53:02.295Z,47.90
2019-03-31T04:54:02.739Z,44.30
2019-03-31T04:55:03.193Z,42.20
2019-03-31T04:56:03.639Z,45.60
2019-03-31T04:57:04.596Z,50.40
2019-03-31T04:58:05.213Z,56.10
2019-03-31T04:59:05.673Z,54.80
2019-03-31T05:00:06.130Z,49.80
2019-03-31T05:01:06.578Z,51.30
2019-03-31T05:02:07.035Z,52.70
2019-03-31T05:03:07.484Z,53.20
2019-03-31T05:04:07.920Z,53.30
2019-03-31T05:05:08.390Z,48.80
2019-03-31T05:06:08.832Z,48.40
2019-03-31T05:07:09.282Z,51.10
2019-03-31T05:08:09.720Z,50.80
2019-03-31T05:09:10.185Z,48.00
2019-03-31T05:10:10.664Z,45.40
2019-03-31T05:11:32.113Z,50.90
2019-03-31T05:12:32.637Z,50.60
2019-03-31T05:18:37.217Z,42.20
2019-03-31T05:21:56.174Z,46.70
2019-03-31T05:22:56.651Z,47.80
2019-03-31T05:27:58.774Z,45.70
2019-03-31T05:28:59.236Z,47.40
2019-03-31T05:33:17.598Z,51.90
2019-03-31T05:34:19.513Z,47.20
2019-03-31T05:35:20.151Z,47.80
2019-03-31T05:36:20.665Z,46.70
2019-03-31T05:37:21.123Z,47.60
2019-03-31T05:38:21.560Z,49.20
2019-03-31T05:39:22.102Z,45.40
2019-03-31T05:40:22.601Z,41.80
2019-03-31T05:43:42.658Z,43.10
2019-03-31T05:45:20.649Z,43.60
2019-03-31T05:46:21.096Z,43.10
2019-03-31T05:51:59.504Z,45.40
2019-03-31T05:57:04.898Z,46.00
2019-03-31T05:58:05.346Z,47.20
2019-03-31T05:59:28.908Z,48.40
2019-03-31T06:00:29.395Z,46.90
2019-03-31T06:01:38.642Z,48.00
2019-03-31T06:02:39.089Z,49.80
2019-03-31T06:04:56.567Z,56.10
2019-03-31T06:05:58.158Z,55.10
2019-03-31T06:06:58.598Z,51.70
2019-03-31T06:08:20.157Z,58.20
2019-03-31T06:09:20.602Z,50.40
2019-03-31T06:13:25.253Z,39.60
2019-03-31T06:14:47.745Z,42.60
2019-03-31T06:15:48.230Z,39.70
2019-03-31T06:17:17.554Z,42.50
2019-03-31T06:18:18.010Z,42.10
2019-03-31T06:21:32.234Z,35.60
2019-03-31T06:22:32.745Z,37.00
2019-03-31T06:24:10.037Z,31.60
2019-03-31T06:25:10.499Z,37.60
2019-03-31T06:29:01.618Z,40.00
2019-03-31T06:31:46.425Z,39.10
2019-03-31T06:35:09.030Z,31.20
2019-03-31T06:38:18.877Z,40.70
2019-03-31T06:39:19.327Z,40.80
2019-03-31T06:40:19.774Z,35.40
2019-03-31T06:41:20.728Z,35.00
2019-03-31T06:42:22.177Z,33.80
2019-03-31T06:43:22.608Z,38.60
2019-03-31T06:44:23.128Z,32.50
2019-03-31T06:45:23.588Z,37.00
2019-03-31T06:46:38.527Z,38.90
2019-03-31T06:47:38.972Z,34.20
2019-03-31T06:48:39.413Z,30.90
2019-03-31T06:49:40.975Z,30.90
2019-03-31T06:50:41.420Z,35.10
2019-03-31T06:51:44.978Z,36.40
2019-03-31T06:52:45.414Z,35.30
2019-03-31T06:53:54.486Z,38.40
2019-03-31T06:54:54.926Z,37.80
2019-03-31T06:56:18.490Z,29.70
2019-03-31T06:57:18.957Z,33.50
2019-03-31T06:58:19.409Z,35.30
2019-03-31T06:59:20.934Z,28.20
2019-03-31T07:00:21.368Z,29.80
2019-03-31T07:01:21.930Z,33.00
2019-03-31T07:02:22.374Z,35.20
2019-03-31T07:03:44.925Z,29.80
2019-03-31T07:04:45.429Z,27.00
2019-03-31T07:05:45.955Z,22.90
2019-03-31T07:06:46.407Z,27.00
2019-03-31T07:08:01.543Z,24.90
2019-03-31T07:09:02.029Z,22.90
2019-03-31T07:10:09.449Z,22.20
2019-03-31T07:11:09.916Z,24.30
2019-03-31T07:12:10.423Z,26.40
2019-03-31T07:13:27.490Z,26.00
2019-03-31T07:14:27.935Z,26.20
2019-03-31T07:15:29.441Z,23.40
2019-03-31T07:16:29.912Z,22.10
2019-03-31T07:17:30.375Z,26.60
2019-03-31T07:18:30.817Z,25.40
2019-03-31T07:19:52.405Z,25.00
2019-03-31T07:20:52.872Z,22.00
2019-03-31T07:21:55.445Z,24.50
2019-03-31T07:22:55.910Z,25.50
2019-03-31T07:23:56.424Z,21.30
2019-03-31T07:24:56.861Z,18.60
2019-03-31T07:26:25.012Z,17.50
2019-03-31T07:27:25.561Z,18.50
2019-03-31T07:28:27.089Z,21.30
2019-03-31T07:29:27.537Z,21.30
2019-03-31T07:32:40.055Z,17.80
2019-03-31T07:34:01.615Z,17.70
2019-03-31T07:35:02.079Z,21.30
2019-03-31T07:36:03.549Z,23.50
2019-03-31T07:37:04.042Z,21.10
2019-03-31T07:38:11.552Z,20.80
2019-03-31T07:39:12.114Z,17.50
2019-03-31T07:40:14.105Z,17.90
2019-03-31T07:41:14.736Z,19.60
2019-03-31T07:45:12.902Z,22.30
2019-03-31T07:51:01.773Z,20.40
2019-03-31T07:52:02.247Z,18.30
2019-03-31T07:53:38.511Z,16.20
2019-03-31T07:54:38.946Z,16.40
2019-03-31T07:55:39.391Z,15.30
2019-03-31T07:56:54.791Z,18.60
2019-03-31T07:57:55.544Z,15.10
2019-03-31T08:03:27.891Z,15.00
2019-03-31T08:04:28.331Z,15.10
2019-03-31T08:05:37.659Z,13.20
2019-03-31T08:06:38.257Z,16.50
2019-03-31T08:07:46.775Z,16.50
2019-03-31T08:08:47.275Z,17.10
2019-03-31T08:12:30.881Z,18.30
2019-03-31T08:13:31.327Z,17.20
2019-03-31T08:21:59.817Z,19.20
2019-03-31T08:23:00.295Z,15.00
2019-03-31T08:25:15.862Z,9.10
2019-03-31T08:28:39.859Z,14.70
2019-03-31T08:29:40.314Z,13.80
2019-03-31T08:30:55.399Z,11.80
2019-03-31T08:31:55.842Z,10.60
2019-03-31T08:32:56.369Z,9.40
2019-03-31T08:33:56.833Z,10.90
2019-03-31T08:35:03.811Z,10.60
2019-03-31T08:36:04.343Z,10.60
2019-03-31T08:41:50.073Z,17.50
2019-03-31T08:42:50.525Z,18.90
2019-03-31T08:44:18.630Z,15.10
2019-03-31T08:45:19.077Z,16.50
2019-03-31T08:46:20.584Z,14.20
2019-03-31T08:47:21.033Z,12.30
2019-03-31T08:48:23.603Z,12.70
2019-03-31T08:49:24.059Z,15.20
2019-03-31T17:11:48.032Z,2.80
2019-03-31T17:12:48.674Z,2.90
2019-03-31T17:13:49.293Z,1.80
2019-03-31T17:14:49.918Z,2.30
2019-03-31T17:15:50.544Z,1.70
2019-03-31T17:16:51.290Z,0.80
2019-03-31T17:17:51.949Z,0.80
2019-03-31T17:18:52.541Z,0.80
2019-03-31T17:19:53.127Z,0.90
2019-03-31T17:20:53.709Z,0.80
2019-03-31T17:21:54.276Z,0.70
2019-03-31T17:22:54.885Z,0.70
2019-03-31T17:23:55.476Z,0.80
2019-03-31T17:24:56.034Z,0.80
2019-03-31T17:25:56.608Z,0.80
2019-03-31T17:26:57.179Z,1.00
2019-03-31T17:27:58.061Z,0.80
2019-03-31T17:28:58.614Z,0.80
2019-03-31T17:29:59.189Z,0.80
2019-03-31T17:31:30.553Z,0.90
2019-03-31T17:32:31.187Z,0.80
2019-03-31T17:33:31.897Z,1.10
2019-03-31T17:34:32.517Z,0.80
2019-03-31T17:35:33.232Z,0.80
2019-03-31T17:39:35.193Z,2.90
2019-03-31T17:41:11.560Z,3.30
2019-03-31T17:42:12.094Z,2.20
2019-03-31T17:57:20.893Z,3.60
2019-03-31T17:58:23.637Z,1.20
2019-03-31T17:59:24.089Z,1.80
2019-03-31T18:00:32.726Z,1.40
2019-03-31T18:01:33.199Z,3.20
2019-03-31T19:16:40.659Z,7.70
2019-03-31T19:17:41.101Z,5.50
2019-03-31T19:18:41.657Z,9.80
2019-03-31T19:19:42.117Z,6.50
2019-03-31T19:20:42.608Z,4.80
2019-03-31T19:21:43.062Z,3.10
2019-03-31T19:22:43.515Z,2.70
2019-03-31T19:23:44.027Z,3.80
2019-03-31T19:24:46.113Z,5.30
2019-03-31T19:25:47.851Z,6.60
2019-03-31T19:26:48.998Z,4.30
2019-03-31T19:27:49.513Z,5.10
2019-03-31T19:40:41.453Z,2.30
2019-03-31T19:41:42.190Z,3.30
2019-03-31T19:42:42.647Z,4.30
2019-03-31T19:43:43.090Z,3.10
2019-03-31T19:44:43.554Z,5.20
2019-03-31T19:45:44.007Z,1.80
2019-03-31T19:46:44.447Z,2.30
2019-03-31T19:47:44.941Z,2.00
2019-03-31T19:48:45.384Z,3.20
2019-03-31T19:49:45.908Z,2.30
2019-03-31T19:50:46.364Z,3.90
2019-03-31T19:51:46.811Z,2.30
2019-03-31T19:52:47.254Z,3.40
2019-03-31T19:53:47.699Z,2.60
2019-03-31T19:54:48.173Z,5.10
2019-03-31T19:55:48.612Z,3.50
2019-03-31T19:56:49.310Z,2.30
2019-03-31T19:57:49.771Z,2.90
2019-03-31T19:58:50.203Z,3.00
2019-03-31T19:59:50.690Z,6.10
2019-03-31T20:00:51.168Z,4.20
2019-03-31T20:01:51.692Z,3.80
2019-03-31T20:02:52.168Z,5.50
2019-03-31T20:03:52.729Z,2.90
2019-03-31T20:04:53.224Z,4.80
2019-03-31T20:05:53.756Z,2.60
2019-03-31T20:06:54.201Z,4.00
2019-03-31T20:07:54.715Z,3.30
2019-03-31T20:08:55.210Z,4.70
2019-03-31T20:09:55.686Z,3.80
2019-03-31T20:10:56.177Z,4.30
2019-03-31T20:11:56.635Z,3.60
2019-03-31T20:12:57.073Z,6.30
2019-03-31T20:13:57.517Z,5.00
2019-03-31T20:14:57.982Z,3.70
2019-03-31T20:15:58.431Z,4.60
2019-03-31T20:16:58.872Z,3.90
2019-03-31T20:17:59.335Z,3.90
2019-03-31T20:18:59.775Z,7.40
2019-03-31T20:20:00.355Z,8.60
2019-03-31T20:21:00.964Z,5.80
2019-03-31T20:22:01.409Z,4.60
2019-03-31T20:23:01.854Z,5.70
2019-03-31T20:24:02.309Z,5.70
2019-03-31T20:25:02.816Z,7.00
2019-03-31T20:26:03.287Z,6.70
2019-03-31T20:27:03.768Z,4.60
2019-03-31T20:28:04.235Z,6.30
2019-03-31T20:29:04.764Z,6.50
2019-03-31T20:30:05.229Z,5.00
2019-03-31T20:31:05.831Z,5.90
2019-03-31T20:32:06.316Z,5.00
2019-03-31T20:33:07.559Z,5.50
2019-03-31T20:34:08.151Z,7.70
2019-03-31T20:35:09.740Z,6.80
2019-03-31T20:36:10.181Z,7.90
2019-03-31T20:37:11.758Z,6.80
2019-03-31T20:38:12.227Z,6.90
2019-03-31T20:39:13.838Z,8.00
2019-03-31T20:40:14.302Z,5.30
2019-03-31T20:42:31.038Z,6.70
2019-03-31T20:43:31.607Z,5.10
2019-03-31T20:44:32.091Z,8.10
2019-03-31T20:45:36.130Z,4.60
2019-03-31T20:46:36.575Z,6.70
2019-03-31T20:47:39.086Z,6.00
2019-03-31T20:48:39.531Z,4.20
2019-03-31T20:49:42.104Z,6.30
2019-03-31T20:50:42.589Z,3.80
2019-03-31T20:51:45.174Z,6.10
2019-03-31T20:52:45.626Z,3.60
2019-03-31T20:53:46.177Z,5.60
2019-03-31T20:54:46.620Z,3.70
2019-03-31T20:56:02.614Z,4.10
2019-03-31T20:57:03.067Z,3.70
2019-03-31T20:58:04.612Z,7.10
2019-03-31T20:59:05.064Z,4.70
2019-03-31T21:00:05.613Z,3.30
2019-03-31T21:01:09.834Z,5.40
2019-03-31T21:02:19.617Z,3.50
2019-03-31T21:03:20.069Z,2.80
2019-03-31T21:04:21.555Z,3.80
2019-03-31T21:05:22.103Z,3.10
2019-03-31T21:06:23.687Z,3.80
2019-03-31T21:07:24.138Z,3.90
2019-03-31T21:31:04.870Z,6.80
2019-03-31T21:32:05.315Z,7.10
2019-03-31T21:33:22.454Z,5.40
2019-03-31T21:34:22.898Z,2.20
2019-03-31T21:38:06.665Z,4.60
2019-03-31T21:39:29.160Z,3.40
2019-03-31T21:40:29.665Z,4.40
2019-03-31T21:41:38.894Z,3.20
2019-03-31T21:42:39.353Z,4.30
2019-03-31T21:43:47.416Z,6.70
2019-03-31T21:44:47.853Z,5.90
2019-03-31T21:47:57.809Z,6.30
2019-03-31T21:48:58.259Z,5.10
2019-03-31T21:49:59.805Z,2.50
2019-03-31T21:51:00.271Z,4.90
2019-03-31T21:52:00.716Z,3.60
2019-03-31T21:53:01.165Z,3.60
2019-03-31T21:54:01.608Z,4.80
2019-03-31T21:55:02.087Z,3.90
2019-03-31T21:56:02.578Z,2.40
2019-03-31T21:59:12.521Z,4.40
2019-03-31T22:00:12.960Z,5.30
2019-03-31T22:01:13.478Z,2.90
2019-03-31T22:02:13.921Z,2.90
2019-03-31T22:03:14.372Z,3.50
2019-03-31T22:04:30.672Z,5.40
2019-03-31T22:05:31.141Z,3.70
2019-03-31T22:06:31.583Z,3.80
2019-03-31T22:07:32.034Z,3.90
2019-03-31T22:08:32.470Z,3.10
2019-03-31T22:09:32.924Z,4.50
2019-03-31T22:10:33.388Z,4.40
2019-03-31T22:11:33.841Z,3.00
2019-03-31T22:12:35.434Z,3.90
2019-03-31T22:13:35.882Z,2.30
2019-03-31T22:14:36.333Z,1.90
2019-03-31T22:15:36.787Z,4.30
2019-03-31T22:16:37.290Z,4.50
2019-03-31T22:17:37.745Z,4.00
2019-03-31T22:18:38.205Z,4.50
2019-03-31T22:19:38.764Z,2.10
2019-03-31T22:20:39.224Z,3.60
2019-03-31T22:21:39.658Z,3.10
2019-03-31T22:22:40.110Z,3.30
2019-03-31T22:23:40.551Z,2.00
2019-03-31T22:24:41.004Z,3.40
2019-03-31T22:25:41.479Z,2.90
2019-03-31T22:26:43.010Z,3.30
2019-03-31T22:27:43.453Z,1.60
2019-03-31T22:28:44.017Z,4.50
2019-03-31T22:29:44.588Z,3.40
2019-03-31T22:30:45.104Z,4.50
2019-03-31T22:31:45.561Z,3.80
2019-03-31T22:32:46.000Z,2.60
2019-03-31T22:33:46.435Z,3.10
2019-03-31T22:34:46.882Z,2.70
2019-03-31T22:35:47.339Z,7.90
2019-03-31T22:36:47.785Z,3.60
2019-03-31T22:37:48.325Z,4.30
2019-03-31T22:38:48.778Z,3.00
2019-03-31T22:39:49.303Z,3.80
2019-03-31T22:40:49.762Z,4.30
2019-03-31T22:41:50.213Z,3.30
2019-03-31T22:42:50.654Z,4.70
2019-03-31T22:43:51.102Z,4.60
2019-03-31T22:44:51.558Z,4.00
2019-03-31T22:45:52.242Z,2.30
2019-03-31T22:46:54.458Z,2.30
2019-03-31T22:47:58.101Z,5.50
2019-03-31T22:48:58.540Z,5.60
2019-03-31T22:49:58.987Z,4.00
2019-03-31T22:50:59.441Z,4.50
2019-03-31T22:51:59.889Z,4.70
2019-03-31T22:53:00.333Z,5.10
2019-03-31T22:54:00.803Z,2.40
2019-03-31T22:55:01.252Z,2.00
2019-03-31T22:56:01.744Z,2.60
2019-03-31T22:57:02.218Z,2.40
2019-03-31T22:58:02.663Z,3.90
2019-03-31T22:59:03.107Z,3.10
2019-03-31T23:00:03.557Z,2.80
2019-03-31T23:01:04.044Z,2.40
2019-03-31T23:02:04.491Z,2.50
2019-03-31T23:03:04.954Z,1.80
2019-03-31T23:04:05.399Z,1.60
2019-03-31T23:05:05.848Z,2.10
2019-03-31T23:06:06.347Z,3.40
2019-03-31T23:07:06.952Z,2.50
2019-03-31T23:08:07.416Z,4.50
2019-03-31T23:09:07.916Z,2.00
2019-03-31T23:10:08.360Z,1.90
2019-03-31T23:11:08.819Z,1.70
2019-03-31T23:14:29.530Z,4.10
2019-03-31T23:15:58.992Z,2.80
2019-03-31T23:16:59.460Z,3.80
2019-03-31T23:18:00.113Z,2.10
2019-03-31T23:19:00.554Z,2.50
2019-03-31T23:20:01.121Z,2.60
2019-03-31T23:21:01.583Z,1.40
2019-03-31T23:22:02.079Z,2.20
2019-03-31T23:23:02.534Z,3.60
2019-03-31T23:24:02.985Z,2.20
2019-03-31T23:25:03.437Z,3.30
2019-03-31T23:26:03.900Z,2.70
2019-03-31T23:27:04.360Z,1.70
2019-03-31T23:28:04.848Z,2.80
2019-03-31T23:29:05.287Z,3.60
2019-03-31T23:30:05.787Z,1.90
2019-03-31T23:31:06.451Z,2.50
2019-03-31T23:32:06.886Z,3.00
2019-03-31T23:33:07.468Z,3.40
2019-03-31T23:34:07.949Z,2.30
2019-03-31T23:35:09.483Z,2.30
2019-03-31T23:36:10.053Z,3.50
2019-03-31T23:37:10.627Z,6.20
2019-03-31T23:38:11.079Z,2.40
2019-03-31T23:39:11.628Z,2.60
2019-03-31T23:40:12.093Z,3.90
2019-03-31T23:41:12.703Z,3.50
2019-03-31T23:42:13.152Z,4.40
2019-03-31T23:43:13.701Z,4.60
2019-03-31T23:44:14.154Z,3.60
2019-03-31T23:45:14.749Z,3.60
2019-03-31T23:46:15.208Z,3.00
2019-03-31T23:47:15.860Z,2.50
2019-03-31T23:48:16.304Z,2.90
2019-03-31T23:49:17.837Z,4.50
2019-03-31T23:50:18.287Z,2.70
2019-03-31T23:51:18.828Z,1.30
2019-03-31T23:52:19.268Z,2.30
2019-03-31T23:53:21.884Z,3.10
2019-03-31T23:54:22.326Z,2.10
2019-03-31T23:55:22.907Z,2.00
2019-03-31T23:56:23.361Z,3.10
2019-03-31T23:57:23.943Z,4.50
2019-03-31T23:58:24.388Z,2.50
2019-03-31T23:59:24.975Z,2.80
